sensor_id;sensor_type;location;lat;lon;timestamp;pressure;altitude;pressure_sealevel;temperature;humidity
57801;BME280;43627;42.728;23.256;2023-02-10T00:01:14;96777.16;;;-7.30;100.00
57801;BME280;43627;42.728;23.256;2023-02-10T00:03:41;96712.50;;;-7.96;100.00
57801;BME280;43627;42.728;23.256;2023-02-10T00:06:09;96722.81;;;-7.72;100.00
57801;BME280;43627;42.728;23.256;2023-02-10T00:08:37;96682.50;;;-8.14;100.00
57801;BME280;43627;42.728;23.256;2023-02-10T00:11:10;96754.13;;;-7.52;100.00
57801;BME280;43627;42.728;23.256;2023-02-10T00:13:38;96737.91;;;-7.50;100.00
57801;BME280;43627;42.728;23.256;2023-02-10T00:16:08;96688.94;;;-7.84;100.00
57801;BME280;43627;42.728;23.256;2023-02-10T00:18:36;96763.44;;;-7.32;100.00
57801;BME280;43627;42.728;23.256;2023-02-10T00:21:13;96770.38;;;-7.44;100.00
57801;BME280;43627;42.728;23.256;2023-02-10T00:23:41;96761.53;;;-7.62;100.00
57801;BME280;43627;42.728;23.256;2023-02-10T00:26:11;96767.56;;;-7.48;100.00
57801;BME280;43627;42.728;23.256;2023-02-10T00:28:38;96695.63;;;-7.86;100.00
57801;BME280;43627;42.728;23.256;2023-02-10T00:31:09;96705.38;;;-7.95;100.00
57801;BME280;43627;42.728;23.256;2023-02-10T00:33:36;96756.09;;;-7.04;100.00
57801;BME280;43627;42.728;23.256;2023-02-10T00:36:11;96703.72;;;-7.38;100.00
57801;BME280;43627;42.728;23.256;2023-02-10T00:38:39;96726.69;;;-7.25;100.00
57801;BME280;43627;42.728;23.256;2023-02-10T00:41:14;96625.31;;;-7.70;100.00
57801;BME280;43627;42.728;23.256;2023-02-10T00:43:41;96696.75;;;-7.25;100.00
57801;BME280;43627;42.728;23.256;2023-02-10T00:46:12;96678.59;;;-7.40;100.00
57801;BME280;43627;42.728;23.256;2023-02-10T00:48:42;96673.09;;;-7.13;100.00
57801;BME280;43627;42.728;23.256;2023-02-10T00:51:09;96688.97;;;-7.22;100.00
57801;BME280;43627;42.728;23.256;2023-02-10T00:53:36;96736.91;;;-6.70;100.00
57801;BME280;43627;42.728;23.256;2023-02-10T00:56:03;96734.41;;;-6.66;100.00
57801;BME280;43627;42.728;23.256;2023-02-10T00:58:30;96723.06;;;-6.98;100.00
57801;BME280;43627;42.728;23.256;2023-02-10T01:00:57;96750.94;;;-7.09;100.00
57801;BME280;43627;42.728;23.256;2023-02-10T01:03:24;96736.75;;;-7.35;100.00
57801;BME280;43627;42.728;23.256;2023-02-10T01:05:51;96719.09;;;-7.71;100.00
57801;BME280;43627;42.728;23.256;2023-02-10T01:08:18;96661.75;;;-8.34;100.00
57801;BME280;43627;42.728;23.256;2023-02-10T01:10:44;96671.94;;;-8.27;100.00
57801;BME280;43627;42.728;23.256;2023-02-10T01:13:13;96673.69;;;-8.45;100.00
57801;BME280;43627;42.728;23.256;2023-02-10T01:15:45;96647.94;;;-8.53;100.00
57801;BME280;43627;42.728;23.256;2023-02-10T01:18:13;96642.28;;;-8.60;100.00
57801;BME280;43627;42.728;23.256;2023-02-10T01:20:42;96731.66;;;-7.99;100.00
57801;BME280;43627;42.728;23.256;2023-02-10T01:23:09;96710.88;;;-8.06;100.00
57801;BME280;43627;42.728;23.256;2023-02-10T01:25:37;96657.81;;;-8.00;100.00
57801;BME280;43627;42.728;23.256;2023-02-10T01:28:05;96582.66;;;-8.44;100.00
57801;BME280;43627;42.728;23.256;2023-02-10T01:30:33;96720.22;;;-7.63;100.00
57801;BME280;43627;42.728;23.256;2023-02-10T01:33:00;96734.03;;;-7.75;100.00
57801;BME280;43627;42.728;23.256;2023-02-10T01:35:27;96667.13;;;-8.25;100.00
57801;BME280;43627;42.728;23.256;2023-02-10T01:37:54;96724.75;;;-7.86;100.00
57801;BME280;43627;42.728;23.256;2023-02-10T01:40:23;96704.53;;;-8.04;100.00
57801;BME280;43627;42.728;23.256;2023-02-10T01:42:50;96642.59;;;-8.62;100.00
57801;BME280;43627;42.728;23.256;2023-02-10T01:47:50;96714.97;;;-7.99;100.00
57801;BME280;43627;42.728;23.256;2023-02-10T01:50:20;96702.75;;;-7.87;100.00
57801;BME280;43627;42.728;23.256;2023-02-10T01:52:48;96626.00;;;-8.31;100.00
57801;BME280;43627;42.728;23.256;2023-02-10T01:55:18;96580.06;;;-8.80;100.00
57801;BME280;43627;42.728;23.256;2023-02-10T01:57:48;96644.47;;;-8.18;100.00
57801;BME280;43627;42.728;23.256;2023-02-10T02:00:21;96602.50;;;-8.33;100.00
57801;BME280;43627;42.728;23.256;2023-02-10T02:02:48;96687.44;;;-7.76;100.00
57801;BME280;43627;42.728;23.256;2023-02-10T02:05:28;96625.22;;;-8.10;100.00
57801;BME280;43627;42.728;23.256;2023-02-10T02:08:12;96669.44;;;-7.88;100.00
57801;BME280;43627;42.728;23.256;2023-02-10T02:36:16;96673.88;;;-8.42;100.00
57801;BME280;43627;42.728;23.256;2023-02-10T02:38:45;96661.38;;;-8.50;100.00
57801;BME280;43627;42.728;23.256;2023-02-10T02:41:12;96690.88;;;-8.34;100.00
57801;BME280;43627;42.728;23.256;2023-02-10T02:43:40;96618.63;;;-8.79;100.00
57801;BME280;43627;42.728;23.256;2023-02-10T02:46:10;96672.81;;;-8.41;100.00
57801;BME280;43627;42.728;23.256;2023-02-10T02:49:18;96688.56;;;-8.36;100.00
57801;BME280;43627;42.728;23.256;2023-02-10T02:52:18;96651.09;;;-8.51;100.00
57801;BME280;43627;42.728;23.256;2023-02-10T02:55:06;96574.41;;;-8.87;100.00
57801;BME280;43627;42.728;23.256;2023-02-10T03:00:05;96594.69;;;-9.10;100.00
57801;BME280;43627;42.728;23.256;2023-02-10T03:02:36;96612.00;;;-8.90;100.00
57801;BME280;43627;42.728;23.256;2023-02-10T03:05:03;96609.47;;;-8.59;100.00
57801;BME280;43627;42.728;23.256;2023-02-10T03:07:30;96638.59;;;-8.37;100.00
57801;BME280;43627;42.728;23.256;2023-02-10T03:09:56;96598.91;;;-8.73;100.00
57801;BME280;43627;42.728;23.256;2023-02-10T03:12:23;96608.91;;;-8.70;100.00
57801;BME280;43627;42.728;23.256;2023-02-10T03:14:50;96665.44;;;-8.44;100.00
57801;BME280;43627;42.728;23.256;2023-02-10T03:17:17;96668.16;;;-8.35;100.00
57801;BME280;43627;42.728;23.256;2023-02-10T03:19:43;96621.09;;;-8.47;100.00
57801;BME280;43627;42.728;23.256;2023-02-10T03:22:10;96647.97;;;-8.09;100.00
57801;BME280;43627;42.728;23.256;2023-02-10T03:24:38;96643.75;;;-8.10;100.00
57801;BME280;43627;42.728;23.256;2023-02-10T03:27:05;96631.94;;;-8.26;100.00
57801;BME280;43627;42.728;23.256;2023-02-10T03:29:32;96642.44;;;-8.21;100.00
57801;BME280;43627;42.728;23.256;2023-02-10T03:31:58;96658.91;;;-8.01;100.00
57801;BME280;43627;42.728;23.256;2023-02-10T03:34:28;96576.59;;;-8.67;100.00
57801;BME280;43627;42.728;23.256;2023-02-10T03:36:54;96666.06;;;-8.02;100.00
57801;BME280;43627;42.728;23.256;2023-02-10T03:39:22;96594.41;;;-8.37;100.00
57801;BME280;43627;42.728;23.256;2023-02-10T03:41:49;96572.75;;;-8.61;100.00
57801;BME280;43627;42.728;23.256;2023-02-10T03:44:15;96650.19;;;-8.02;100.00
57801;BME280;43627;42.728;23.256;2023-02-10T03:46:42;96643.38;;;-8.17;100.00
57801;BME280;43627;42.728;23.256;2023-02-10T03:49:09;96560.50;;;-8.93;100.00
57801;BME280;43627;42.728;23.256;2023-02-10T03:51:35;96577.97;;;-8.70;100.00
57801;BME280;43627;42.728;23.256;2023-02-10T03:54:02;96532.25;;;-9.06;100.00
57801;BME280;43627;42.728;23.256;2023-02-10T03:56:29;96659.88;;;-8.42;100.00
57801;BME280;43627;42.728;23.256;2023-02-10T03:58:56;96566.63;;;-8.84;100.00
57801;BME280;43627;42.728;23.256;2023-02-10T04:01:22;96612.81;;;-8.68;100.00
57801;BME280;43627;42.728;23.256;2023-02-10T04:03:49;96572.31;;;-8.77;100.00
57801;BME280;43627;42.728;23.256;2023-02-10T04:06:16;96607.34;;;-8.26;100.00
57801;BME280;43627;42.728;23.256;2023-02-10T04:08:46;96640.81;;;-7.86;100.00
57801;BME280;43627;42.728;23.256;2023-02-10T04:11:14;96587.41;;;-8.32;100.00
57801;BME280;43627;42.728;23.256;2023-02-10T04:13:42;96607.50;;;-8.31;100.00
57801;BME280;43627;42.728;23.256;2023-02-10T04:16:13;96587.00;;;-8.71;100.00
57801;BME280;43627;42.728;23.256;2023-02-10T04:22:14;96669.28;;;-8.27;100.00
57801;BME280;43627;42.728;23.256;2023-02-10T04:24:41;96496.44;;;-9.12;100.00
57801;BME280;43627;42.728;23.256;2023-02-10T04:27:10;96633.50;;;-8.25;100.00
57801;BME280;43627;42.728;23.256;2023-02-10T04:29:41;96615.50;;;-8.45;100.00
57801;BME280;43627;42.728;23.256;2023-02-10T04:32:08;96591.63;;;-8.90;100.00
57801;BME280;43627;42.728;23.256;2023-02-10T04:34:35;96649.81;;;-8.54;100.00
57801;BME280;43627;42.728;23.256;2023-02-10T04:37:02;96617.69;;;-8.97;100.00
57801;BME280;43627;42.728;23.256;2023-02-10T04:39:34;96565.47;;;-9.28;100.00
57801;BME280;43627;42.728;23.256;2023-02-10T04:42:06;96514.66;;;-9.74;100.00
57801;BME280;43627;42.728;23.256;2023-02-10T04:44:36;96678.34;;;-8.78;100.00
57801;BME280;43627;42.728;23.256;2023-02-10T04:47:03;96602.81;;;-9.21;100.00
57801;BME280;43627;42.728;23.256;2023-02-10T04:49:29;96610.84;;;-9.12;100.00
57801;BME280;43627;42.728;23.256;2023-02-10T04:52:05;96646.72;;;-8.70;100.00
57801;BME280;43627;42.728;23.256;2023-02-10T04:54:33;96591.09;;;-9.28;100.00
57801;BME280;43627;42.728;23.256;2023-02-10T04:57:03;96661.25;;;-8.81;100.00
57801;BME280;43627;42.728;23.256;2023-02-10T04:59:30;96658.09;;;-8.83;100.00
57801;BME280;43627;42.728;23.256;2023-02-10T05:02:03;96593.91;;;-9.38;100.00
57801;BME280;43627;42.728;23.256;2023-02-10T05:04:30;96592.09;;;-9.38;100.00
57801;BME280;43627;42.728;23.256;2023-02-10T05:07:10;96618.88;;;-9.17;100.00
57801;BME280;43627;42.728;23.256;2023-02-10T05:09:37;96478.19;;;-10.00;100.00
57801;BME280;43627;42.728;23.256;2023-02-10T05:12:04;96640.47;;;-8.87;100.00
57801;BME280;43627;42.728;23.256;2023-02-10T05:14:31;96518.91;;;-9.37;100.00
57801;BME280;43627;42.728;23.256;2023-02-10T05:16:59;96579.63;;;-9.10;100.00
57801;BME280;43627;42.728;23.256;2023-02-10T05:19:26;96657.22;;;-8.78;100.00
57801;BME280;43627;42.728;23.256;2023-02-10T05:21:53;96611.41;;;-9.01;100.00
57801;BME280;43627;42.728;23.256;2023-02-10T05:24:20;96595.19;;;-9.22;100.00
57801;BME280;43627;42.728;23.256;2023-02-10T05:26:47;96584.56;;;-9.44;100.00
57801;BME280;43627;42.728;23.256;2023-02-10T05:29:14;96641.59;;;-9.16;100.00
57801;BME280;43627;42.728;23.256;2023-02-10T05:31:41;96634.72;;;-9.03;100.00
57801;BME280;43627;42.728;23.256;2023-02-10T05:34:09;96709.75;;;-8.49;100.00
57801;BME280;43627;42.728;23.256;2023-02-10T05:36:35;96701.03;;;-8.64;100.00
57801;BME280;43627;42.728;23.256;2023-02-10T05:39:05;96700.75;;;-8.48;100.00
57801;BME280;43627;42.728;23.256;2023-02-10T05:41:55;96694.38;;;-8.47;100.00
57801;BME280;43627;42.728;23.256;2023-02-10T05:44:23;96569.47;;;-9.16;100.00
57801;BME280;43627;42.728;23.256;2023-02-10T05:46:50;96690.38;;;-8.00;100.00
57801;BME280;43627;42.728;23.256;2023-02-10T05:49:17;96636.25;;;-7.94;100.00
57801;BME280;43627;42.728;23.256;2023-02-10T05:51:45;96719.56;;;-7.46;100.00
57801;BME280;43627;42.728;23.256;2023-02-10T05:54:17;96664.03;;;-7.83;100.00
57801;BME280;43627;42.728;23.256;2023-02-10T05:56:44;96693.00;;;-7.24;100.00
57801;BME280;43627;42.728;23.256;2023-02-10T05:59:11;96706.19;;;-7.02;100.00
57801;BME280;43627;42.728;23.256;2023-02-10T06:01:42;96663.81;;;-6.93;100.00
57801;BME280;43627;42.728;23.256;2023-02-10T06:04:10;96671.53;;;-6.57;100.00
57801;BME280;43627;42.728;23.256;2023-02-10T06:06:37;96697.66;;;-6.33;100.00
57801;BME280;43627;42.728;23.256;2023-02-10T06:09:04;96754.53;;;-5.65;97.54
57801;BME280;43627;42.728;23.256;2023-02-10T06:11:31;96738.25;;;-5.37;92.83
57801;BME280;43627;42.728;23.256;2023-02-10T06:14:06;96680.56;;;-5.54;85.09
57801;BME280;43627;42.728;23.256;2023-02-10T06:16:33;96646.69;;;-5.19;80.93
57801;BME280;43627;42.728;23.256;2023-02-10T06:19:00;96737.78;;;-3.95;78.70
57801;BME280;43627;42.728;23.256;2023-02-10T06:21:27;96700.41;;;-3.87;88.12
57801;BME280;43627;42.728;23.256;2023-02-10T06:23:55;96724.56;;;-3.92;89.63
57801;BME280;43627;42.728;23.256;2023-02-10T06:26:22;96750.31;;;-3.75;90.49
57801;BME280;43627;42.728;23.256;2023-02-10T06:28:49;96761.44;;;-3.73;90.10
57801;BME280;43627;42.728;23.256;2023-02-10T06:31:17;96635.22;;;-4.73;94.40
57801;BME280;43627;42.728;23.256;2023-02-10T06:33:44;96725.84;;;-3.98;96.47
57801;BME280;43627;42.728;23.256;2023-02-10T06:36:11;96759.91;;;-4.04;82.87
57801;BME280;43627;42.728;23.256;2023-02-10T06:38:38;96719.03;;;-4.58;79.43
57801;BME280;43627;42.728;23.256;2023-02-10T06:41:08;96665.69;;;-5.00;82.65
57801;BME280;43627;42.728;23.256;2023-02-10T06:43:35;96705.00;;;-5.14;87.39
57801;BME280;43627;42.728;23.256;2023-02-10T06:46:06;96753.28;;;-4.95;93.17
57801;BME280;43627;42.728;23.256;2023-02-10T06:48:33;96646.09;;;-5.33;94.40
57801;BME280;43627;42.728;23.256;2023-02-10T06:51:03;96673.59;;;-5.21;87.85
57801;BME280;43627;42.728;23.256;2023-02-10T06:53:33;96684.16;;;-5.03;93.56
57801;BME280;43627;42.728;23.256;2023-02-10T06:56:00;96713.81;;;-4.84;86.50
57801;BME280;43627;42.728;23.256;2023-02-10T06:58:27;96778.50;;;-4.45;79.49
57801;BME280;43627;42.728;23.256;2023-02-10T07:00:54;96724.25;;;-5.08;81.97
57801;BME280;43627;42.728;23.256;2023-02-10T07:03:21;96788.91;;;-4.70;92.09
57801;BME280;43627;42.728;23.256;2023-02-10T07:05:48;96679.06;;;-5.17;92.23
57801;BME280;43627;42.728;23.256;2023-02-10T07:08:15;96727.66;;;-4.99;81.50
57801;BME280;43627;42.728;23.256;2023-02-10T07:10:42;96707.44;;;-5.47;88.73
57801;BME280;43627;42.728;23.256;2023-02-10T07:13:09;96730.84;;;-5.23;89.10
57801;BME280;43627;42.728;23.256;2023-02-10T07:15:36;96697.16;;;-5.57;90.92
57801;BME280;43627;42.728;23.256;2023-02-10T07:18:03;96687.75;;;-5.46;90.90
57801;BME280;43627;42.728;23.256;2023-02-10T07:20:29;96738.66;;;-5.09;90.25
57801;BME280;43627;42.728;23.256;2023-02-10T07:22:56;96674.69;;;-5.22;90.65
57801;BME280;43627;42.728;23.256;2023-02-10T07:25:23;96703.25;;;-5.01;85.61
57801;BME280;43627;42.728;23.256;2023-02-10T07:27:51;96674.41;;;-5.29;84.28
57801;BME280;43627;42.728;23.256;2023-02-10T07:30:18;96662.03;;;-5.25;83.51
57801;BME280;43627;42.728;23.256;2023-02-10T07:32:49;96670.69;;;-5.45;81.13
57801;BME280;43627;42.728;23.256;2023-02-10T07:35:20;96734.00;;;-5.21;86.04
57801;BME280;43627;42.728;23.256;2023-02-10T07:37:55;96711.66;;;-5.37;82.26
57801;BME280;43627;42.728;23.256;2023-02-10T07:40:23;96698.69;;;-5.48;81.89
57801;BME280;43627;42.728;23.256;2023-02-10T07:43:03;96775.09;;;-5.01;80.54
57801;BME280;43627;42.728;23.256;2023-02-10T07:46:00;96632.19;;;-5.86;84.85
57801;BME280;43627;42.728;23.256;2023-02-10T07:48:31;96686.84;;;-5.59;83.77
57801;BME280;43627;42.728;23.256;2023-02-10T07:51:05;96621.22;;;-5.84;79.66
57801;BME280;43627;42.728;23.256;2023-02-10T07:53:32;96613.56;;;-5.77;79.19
57801;BME280;43627;42.728;23.256;2023-02-10T07:56:00;96804.00;;;-4.82;77.68
57801;BME280;43627;42.728;23.256;2023-02-10T07:58:28;96666.88;;;-5.91;76.38
57801;BME280;43627;42.728;23.256;2023-02-10T08:00:56;96633.59;;;-5.97;84.56
57801;BME280;43627;42.728;23.256;2023-02-10T08:03:23;96680.53;;;-5.37;82.38
57801;BME280;43627;42.728;23.256;2023-02-10T08:05:50;96780.00;;;-4.74;77.94
57801;BME280;43627;42.728;23.256;2023-02-10T08:08:17;96751.81;;;-4.75;79.53
57801;BME280;43627;42.728;23.256;2023-02-10T08:10:44;96775.66;;;-4.49;77.28
57801;BME280;43627;42.728;23.256;2023-02-10T08:13:11;96693.56;;;-5.06;75.25
57801;BME280;43627;42.728;23.256;2023-02-10T08:15:39;96628.91;;;-5.36;71.61
57801;BME280;43627;42.728;23.256;2023-02-10T08:18:07;96630.22;;;-5.12;68.03
57801;BME280;43627;42.728;23.256;2023-02-10T08:20:34;96780.59;;;-4.00;66.67
57801;BME280;43627;42.728;23.256;2023-02-10T08:23:01;96776.13;;;-3.67;65.31
57801;BME280;43627;42.728;23.256;2023-02-10T08:25:28;96770.00;;;-3.47;66.47
57801;BME280;43627;42.728;23.256;2023-02-10T08:27:55;96741.16;;;-4.07;63.88
57801;BME280;43627;42.728;23.256;2023-02-10T08:30:22;96692.97;;;-4.44;65.37
57801;BME280;43627;42.728;23.256;2023-02-10T08:32:49;96719.34;;;-4.09;65.41
57801;BME280;43627;42.728;23.256;2023-02-10T08:35:17;96606.31;;;-4.62;65.71
57801;BME280;43627;42.728;23.256;2023-02-10T08:37:46;96685.25;;;-3.95;61.48
57801;BME280;43627;42.728;23.256;2023-02-10T08:40:13;96737.44;;;-3.73;61.98
57801;BME280;43627;42.728;23.256;2023-02-10T08:42:40;96674.72;;;-3.91;62.28
57801;BME280;43627;42.728;23.256;2023-02-10T08:45:08;96706.66;;;-3.50;62.49
57801;BME280;43627;42.728;23.256;2023-02-10T08:47:38;96686.13;;;-3.49;62.26
57801;BME280;43627;42.728;23.256;2023-02-10T08:50:23;96716.38;;;-3.33;60.86
57801;BME280;43627;42.728;23.256;2023-02-10T08:53:00;96700.34;;;-3.00;65.42
57801;BME280;43627;42.728;23.256;2023-02-10T08:55:26;96634.00;;;-3.47;61.01
57801;BME280;43627;42.728;23.256;2023-02-10T08:58:09;96750.22;;;-2.43;59.08
57801;BME280;43627;42.728;23.256;2023-02-10T09:01:11;96668.22;;;-2.91;60.53
57801;BME280;43627;42.728;23.256;2023-02-10T09:03:39;96739.84;;;-2.08;60.71
57801;BME280;43627;42.728;23.256;2023-02-10T09:06:15;96725.59;;;-2.12;61.50
57801;BME280;43627;42.728;23.256;2023-02-10T09:08:44;96756.41;;;-1.90;60.23
57801;BME280;43627;42.728;23.256;2023-02-10T09:11:11;96642.50;;;-2.59;59.62
57801;BME280;43627;42.728;23.256;2023-02-10T09:13:39;96653.16;;;-2.35;57.58
57801;BME280;43627;42.728;23.256;2023-02-10T09:16:07;96610.13;;;-2.58;55.77
57801;BME280;43627;42.728;23.256;2023-02-10T09:18:34;96563.53;;;-2.72;58.15
57801;BME280;43627;42.728;23.256;2023-02-10T09:21:03;96740.56;;;-1.70;57.16
57801;BME280;43627;42.728;23.256;2023-02-10T09:23:31;96624.59;;;-2.18;54.74
57801;BME280;43627;42.728;23.256;2023-02-10T09:26:03;96655.84;;;-1.66;55.17
57801;BME280;43627;42.728;23.256;2023-02-10T09:28:30;96656.81;;;-1.59;53.48
57801;BME280;43627;42.728;23.256;2023-02-10T09:31:21;96584.09;;;-1.92;52.31
57801;BME280;43627;42.728;23.256;2023-02-10T09:33:49;96723.94;;;-0.92;52.31
57801;BME280;43627;42.728;23.256;2023-02-10T09:36:37;96699.56;;;-1.75;53.41
57801;BME280;43627;42.728;23.256;2023-02-10T09:39:18;96572.81;;;-1.86;54.65
57801;BME280;43627;42.728;23.256;2023-02-10T09:44:33;96609.69;;;-1.63;56.15
57801;BME280;43627;42.728;23.256;2023-02-10T09:47:21;96722.03;;;-0.44;53.55
57801;BME280;43627;42.728;23.256;2023-02-10T09:53:08;96709.56;;;-0.37;51.09
57801;BME280;43627;42.728;23.256;2023-02-10T09:58:43;96581.59;;;-1.41;49.85
57801;BME280;43627;42.728;23.256;2023-02-10T10:01:23;96567.19;;;-1.37;50.72
57801;BME280;43627;42.728;23.256;2023-02-10T10:04:14;96559.94;;;-1.36;49.67
57801;BME280;43627;42.728;23.256;2023-02-10T10:06:56;96608.19;;;-1.01;48.34
57801;BME280;43627;42.728;23.256;2023-02-10T10:09:44;96702.25;;;-0.71;50.02
57801;BME280;43627;42.728;23.256;2023-02-10T10:12:17;96600.94;;;-1.01;50.43
57801;BME280;43627;42.728;23.256;2023-02-10T10:14:49;96622.50;;;-0.27;50.33
57801;BME280;43627;42.728;23.256;2023-02-10T10:26:20;96663.34;;;0.63;47.23
57801;BME280;43627;42.728;23.256;2023-02-10T10:31:37;96630.94;;;0.52;46.89
57801;BME280;43627;42.728;23.256;2023-02-10T10:34:16;96595.13;;;0.03;47.63
57801;BME280;43627;42.728;23.256;2023-02-10T10:36:46;96593.94;;;0.42;48.50
57801;BME280;43627;42.728;23.256;2023-02-10T10:41:50;96635.88;;;1.16;47.32
57801;BME280;43627;42.728;23.256;2023-02-10T10:44:18;96623.78;;;1.29;46.10
57801;BME280;43627;42.728;23.256;2023-02-10T10:47:12;96594.59;;;1.54;46.99
57801;BME280;43627;42.728;23.256;2023-02-10T10:49:41;96631.00;;;1.51;44.94
57801;BME280;43627;42.728;23.256;2023-02-10T10:52:27;96606.38;;;1.46;49.10
57801;BME280;43627;42.728;23.256;2023-02-10T10:54:55;96573.34;;;1.45;46.97
57801;BME280;43627;42.728;23.256;2023-02-10T10:57:25;96594.50;;;1.77;46.15
57801;BME280;43627;42.728;23.256;2023-02-10T10:59:59;96611.97;;;1.90;45.26
57801;BME280;43627;42.728;23.256;2023-02-10T11:02:29;96591.38;;;1.45;44.51
57801;BME280;43627;42.728;23.256;2023-02-10T11:05:12;96603.53;;;1.35;44.22
57801;BME280;43627;42.728;23.256;2023-02-10T11:07:48;96614.13;;;1.24;44.45
57801;BME280;43627;42.728;23.256;2023-02-10T11:10:29;96623.28;;;1.46;44.73
57801;BME280;43627;42.728;23.256;2023-02-10T11:12:58;96605.78;;;1.59;44.48
57801;BME280;43627;42.728;23.256;2023-02-10T11:15:30;96611.59;;;1.91;43.96
57801;BME280;43627;42.728;23.256;2023-02-10T11:18:00;96547.09;;;1.95;43.89
57801;BME280;43627;42.728;23.256;2023-02-10T11:20:31;96607.34;;;1.60;43.08
57801;BME280;43627;42.728;23.256;2023-02-10T11:23:02;96596.03;;;1.78;43.28
57801;BME280;43627;42.728;23.256;2023-02-10T11:25:36;96597.34;;;1.61;43.50
57801;BME280;43627;42.728;23.256;2023-02-10T11:28:07;96584.75;;;1.95;44.69
57801;BME280;43627;42.728;23.256;2023-02-10T11:31:04;96529.31;;;1.87;43.20
57801;BME280;43627;42.728;23.256;2023-02-10T11:33:34;96547.00;;;2.21;42.59
57801;BME280;43627;42.728;23.256;2023-02-10T11:36:05;96511.44;;;2.05;42.73
57801;BME280;43627;42.728;23.256;2023-02-10T11:38:37;96543.56;;;2.24;43.21
57801;BME280;43627;42.728;23.256;2023-02-10T11:41:08;96583.50;;;2.19;44.05
57801;BME280;43627;42.728;23.256;2023-02-10T11:43:44;96574.81;;;1.99;44.10
57801;BME280;43627;42.728;23.256;2023-02-10T11:46:24;96555.66;;;2.04;43.55
57801;BME280;43627;42.728;23.256;2023-02-10T11:49:00;96576.91;;;2.53;42.56
57801;BME280;43627;42.728;23.256;2023-02-10T11:51:29;96538.94;;;2.25;43.54
57801;BME280;43627;42.728;23.256;2023-02-10T11:54:02;96570.69;;;2.46;45.94
57801;BME280;43627;42.728;23.256;2023-02-10T12:05:09;96552.75;;;2.57;44.40
57801;BME280;43627;42.728;23.256;2023-02-10T12:10:40;96512.69;;;2.52;43.44
57801;BME280;43627;42.728;23.256;2023-02-10T12:13:29;96545.69;;;2.90;44.91
57801;BME280;43627;42.728;23.256;2023-02-10T12:16:15;96538.13;;;3.06;43.37
57801;BME280;43627;42.728;23.256;2023-02-10T12:21:48;96525.16;;;3.26;44.63
57801;BME280;43627;42.728;23.256;2023-02-10T12:27:30;96507.41;;;3.21;41.57
57801;BME280;43627;42.728;23.256;2023-02-10T12:32:54;96524.78;;;2.72;42.44
57801;BME280;43627;42.728;23.256;2023-02-10T12:35:44;96527.31;;;3.02;44.24
57801;BME280;43627;42.728;23.256;2023-02-10T12:38:46;96521.81;;;3.47;42.83
57801;BME280;43627;42.728;23.256;2023-02-10T12:44:23;96516.19;;;3.11;42.30
57801;BME280;43627;42.728;23.256;2023-02-10T12:55:16;96512.22;;;3.60;42.48
57801;BME280;43627;42.728;23.256;2023-02-10T12:57:57;96428.78;;;3.05;43.32
57801;BME280;43627;42.728;23.256;2023-02-10T13:00:34;96505.41;;;3.80;42.31
57801;BME280;43627;42.728;23.256;2023-02-10T13:03:12;96504.56;;;3.65;41.69
57801;BME280;43627;42.728;23.256;2023-02-10T13:06:10;96505.47;;;4.05;41.34
57801;BME280;43627;42.728;23.256;2023-02-10T13:08:44;96412.44;;;3.56;40.11
57801;BME280;43627;42.728;23.256;2023-02-10T13:11:20;96494.94;;;3.61;40.64
57801;BME280;43627;42.728;23.256;2023-02-10T13:13:49;96505.06;;;3.92;40.90
57801;BME280;43627;42.728;23.256;2023-02-10T13:16:23;96458.28;;;3.53;41.36
57801;BME280;43627;42.728;23.256;2023-02-10T13:21:26;96497.75;;;4.00;39.85
57801;BME280;43627;42.728;23.256;2023-02-10T13:24:23;96509.38;;;4.22;39.68
57801;BME280;43627;42.728;23.256;2023-02-10T13:34:35;96443.72;;;3.75;40.18
57801;BME280;43627;42.728;23.256;2023-02-10T13:37:19;96508.59;;;4.21;40.16
57801;BME280;43627;42.728;23.256;2023-02-10T13:39:50;96501.94;;;3.87;39.66
57801;BME280;43627;42.728;23.256;2023-02-10T13:42:24;96515.13;;;4.13;41.06
57801;BME280;43627;42.728;23.256;2023-02-10T13:45:14;96494.72;;;4.34;39.34
57801;BME280;43627;42.728;23.256;2023-02-10T13:53:02;96501.34;;;4.57;38.42
57801;BME280;43627;42.728;23.256;2023-02-10T14:00:46;96456.50;;;4.07;38.84
57801;BME280;43627;42.728;23.256;2023-02-10T14:06:03;96488.97;;;4.71;38.08
57801;BME280;43627;42.728;23.256;2023-02-10T14:08:38;96456.16;;;4.22;39.97
57801;BME280;43627;42.728;23.256;2023-02-10T14:11:29;96494.00;;;4.37;39.00
57801;BME280;43627;42.728;23.256;2023-02-10T14:14:01;96488.94;;;4.35;37.92
57801;BME280;43627;42.728;23.256;2023-02-10T14:16:31;96470.41;;;4.16;38.31
57801;BME280;43627;42.728;23.256;2023-02-10T14:19:04;96434.50;;;3.80;40.65
57801;BME280;43627;42.728;23.256;2023-02-10T14:21:40;96413.25;;;3.75;38.43
57801;BME280;43627;42.728;23.256;2023-02-10T14:24:24;96425.63;;;3.86;38.05
57801;BME280;43627;42.728;23.256;2023-02-10T14:27:03;96440.28;;;3.89;38.13
57801;BME280;43627;42.728;23.256;2023-02-10T14:29:33;96496.16;;;3.81;37.44
57801;BME280;43627;42.728;23.256;2023-02-10T14:32:02;96489.16;;;3.62;38.45
57801;BME280;43627;42.728;23.256;2023-02-10T14:34:33;96409.06;;;2.94;38.65
57801;BME280;43627;42.728;23.256;2023-02-10T14:37:18;96491.50;;;3.75;40.37
57801;BME280;43627;42.728;23.256;2023-02-10T14:39:58;96481.47;;;3.75;38.65
57801;BME280;43627;42.728;23.256;2023-02-10T14:42:27;96487.75;;;4.08;38.61
57801;BME280;43627;42.728;23.256;2023-02-10T14:44:56;96473.81;;;3.88;41.37
57801;BME280;43627;42.728;23.256;2023-02-10T14:47:29;96448.75;;;3.84;39.07
57801;BME280;43627;42.728;23.256;2023-02-10T14:49:56;96483.50;;;3.99;37.55
57801;BME280;43627;42.728;23.256;2023-02-10T14:52:33;96446.78;;;3.77;38.32
57801;BME280;43627;42.728;23.256;2023-02-10T14:55:37;96459.91;;;3.79;37.85
57801;BME280;43627;42.728;23.256;2023-02-10T14:58:13;96467.16;;;3.57;38.92
57801;BME280;43627;42.728;23.256;2023-02-10T15:00:42;96464.94;;;3.80;39.08
57801;BME280;43627;42.728;23.256;2023-02-10T15:03:18;96459.94;;;3.96;39.84